KGKT

Gatlinburg-Pigeon Forge Airport

Sevierville, Tennessee, USA
METAR KGKT 151835Z AUTO 28009G17KT 10SM BKN036 OVC043 16/10 A2981 RMK A01
Observed Flight Rules
Feb-15 @ 18:35 UTC (36 minutes ago) Visual Flight Rules
Wind Visibility Clouds
280° at 9 knots
 Gusting to 17 knots
10 miles
  • Broken at 3,600' AGL
  • Overcast at 4,300' AGL
Temperatures Readings
Current 16°C / 61°F
Dewpoint 10°C / 50°F
Humidity 68%
Altimeter 29.81" Hg
Pressure 1009.52 hPa
Elevation 309
METAR KGKT 151835Z AUTO 28009G17KT 10SM BKN036 OVC043 16/10 A2981 RMK A01
Observed Flight Rules
Feb-15 @ 18:35 UTC
(36 minutes ago)
VFR
Wind Visibility
280° at 9 knots
 Gusting to 17 knots
10 miles
Clouds
  • Broken at 3,600' AGL
  • Overcast at 4,300' AGL
Temperature Dewpoint
16°C / 61°F 10°C / 50°F
Humidity Altimeter Pressure
68% 29.81" Hg 1009.52 hPa